createdAt,value
2023-01-30T00:00:54.226Z,57.38
2023-01-30T00:03:23.703Z,43.17
2023-01-30T00:05:51.821Z,53.35
2023-01-30T00:08:19.825Z,59.08
2023-01-30T00:10:48.254Z,59.13
2023-01-30T00:13:16.627Z,56.83
2023-01-30T00:15:44.907Z,54.60
2023-01-30T00:18:12.519Z,51.58
2023-01-30T00:20:41.309Z,57.35
2023-01-30T00:23:08.836Z,58.72
2023-01-30T00:25:36.608Z,57.28
2023-01-30T00:28:04.318Z,52.50
2023-01-30T00:30:31.943Z,60.63
2023-01-30T00:33:00.290Z,59.03
2023-01-30T00:35:29.337Z,59.25
2023-01-30T00:37:59.329Z,61.30
2023-01-30T00:40:27.700Z,42.05
2023-01-30T00:43:13.357Z,53.05
2023-01-30T00:45:59.718Z,48.58
2023-01-30T00:48:27.417Z,63.97
2023-01-30T00:50:54.861Z,52.20
2023-01-30T00:53:23.786Z,57.45
2023-01-30T00:55:52.115Z,53.70
2023-01-30T00:58:19.881Z,60.78
2023-01-30T01:00:47.670Z,51.30
2023-01-30T01:03:15.528Z,52.92
2023-01-30T01:05:44.017Z,53.80
2023-01-30T01:08:11.892Z,53.92
2023-01-30T01:10:40.946Z,52.75
2023-01-30T01:13:10.699Z,56.97
2023-01-30T01:15:38.417Z,57.63
2023-01-30T01:18:07.816Z,50.37
2023-01-30T01:20:35.711Z,57.33
2023-01-30T01:23:03.499Z,56.15
2023-01-30T01:25:30.992Z,59.95
2023-01-30T01:27:59.923Z,51.90
2023-01-30T01:30:27.617Z,54.40
2023-01-30T01:32:55.536Z,55.78
2023-01-30T01:35:23.077Z,32.10
2023-01-30T01:37:54.352Z,44.90
2023-01-30T01:40:40.309Z,59.53
2023-01-30T01:43:17.090Z,58.42
2023-01-30T01:45:45.150Z,41.53
2023-01-30T01:48:16.875Z,48.37
2023-01-30T01:50:47.264Z,48.38
2023-01-30T01:53:17.192Z,41.78
2023-01-30T01:55:45.251Z,57.08
2023-01-30T01:58:18.435Z,42.97
2023-01-30T02:00:46.143Z,30.17
2023-01-30T02:03:16.439Z,56.03
2023-01-30T02:05:48.020Z,50.83
2023-01-30T02:08:18.717Z,41.40
2023-01-30T02:10:51.770Z,56.97
2023-01-30T02:13:21.333Z,58.58
2023-01-30T02:15:48.932Z,58.40
2023-01-30T02:18:16.901Z,47.33
2023-01-30T02:20:58.568Z,64.10
2023-01-30T02:23:55.353Z,41.63
2023-01-30T02:26:54.761Z,62.63
2023-01-30T02:29:40.459Z,66.47
2023-01-30T02:32:15.387Z,54.75
2023-01-30T02:34:51.376Z,56.25
2023-01-30T02:37:29.181Z,50.72
2023-01-30T02:40:11.487Z,47.80
2023-01-30T02:42:46.380Z,52.05
2023-01-30T02:45:18.774Z,40.50
2023-01-30T02:47:50.905Z,43.40
2023-01-30T02:50:22.303Z,62.35
2023-01-30T02:52:50.063Z,45.40
2023-01-30T02:55:21.760Z,55.72
2023-01-30T02:57:49.345Z,62.95
2023-01-30T03:00:20.933Z,47.15
2023-01-30T03:03:07.238Z,59.20
2023-01-30T03:05:46.367Z,39.90
2023-01-30T03:08:21.618Z,51.23
2023-01-30T03:10:54.143Z,43.90
2023-01-30T03:13:28.572Z,36.28
2023-01-30T03:16:01.329Z,39.70
2023-01-30T03:18:30.745Z,38.92
2023-01-30T03:20:58.239Z,26.85
2023-01-30T03:23:25.985Z,30.48
2023-01-30T03:25:53.474Z,31.95
2023-01-30T03:28:22.015Z,19.73
2023-01-30T03:30:49.766Z,2.20
2023-01-30T03:33:17.518Z,1.90
2023-01-30T03:35:46.680Z,0.10
2023-01-30T03:38:14.609Z,4.35
2023-01-30T03:40:42.338Z,0.10
2023-01-30T03:43:09.902Z,0.40
2023-01-30T03:45:37.815Z,0.77
2023-01-30T03:48:05.662Z,0.40
2023-01-30T03:50:33.439Z,2.30
2023-01-30T03:53:02.302Z,0.60
2023-01-30T03:55:30.037Z,2.00
2023-01-30T03:57:58.035Z,1.70
2023-01-30T04:00:25.561Z,0.50
2023-01-30T04:02:54.721Z,0.40
2023-01-30T04:05:22.228Z,1.20
2023-01-30T04:07:50.808Z,0.00
2023-01-30T04:10:19.911Z,0.90
2023-01-30T04:12:47.697Z,2.08
2023-01-30T04:15:15.348Z,0.40
2023-01-30T04:17:43.863Z,0.40
2023-01-30T04:20:12.336Z,0.40
2023-01-30T04:22:40.005Z,0.70
2023-01-30T04:25:08.871Z,2.70
2023-01-30T04:27:37.957Z,0.10
2023-01-30T04:30:06.739Z,0.22
2023-01-30T04:32:34.257Z,0.20
2023-01-30T04:35:01.826Z,0.80
2023-01-30T04:37:29.376Z,0.30
2023-01-30T04:39:57.054Z,0.60
2023-01-30T04:42:24.614Z,1.88
2023-01-30T04:44:53.518Z,0.65
2023-01-30T04:47:21.193Z,0.60
2023-01-30T04:49:48.997Z,4.00
2023-01-30T04:52:16.544Z,3.00
2023-01-30T04:54:44.181Z,2.70
2023-01-30T04:57:11.852Z,0.10
2023-01-30T04:59:39.702Z,0.30
2023-01-30T05:02:08.827Z,0.03
2023-01-30T05:04:36.343Z,0.57
2023-01-30T05:07:03.980Z,0.95
2023-01-30T05:09:31.827Z,0.52
2023-01-30T05:11:59.531Z,0.10
2023-01-30T05:14:27.075Z,1.40
2023-01-30T05:16:54.652Z,0.30
2023-01-30T05:19:23.767Z,0.10
2023-01-30T05:21:51.469Z,0.80
2023-01-30T05:24:19.107Z,0.50
2023-01-30T05:26:46.807Z,0.15
2023-01-30T05:29:14.560Z,0.00
2023-01-30T05:31:42.288Z,0.10
2023-01-30T05:34:12.183Z,0.20
2023-01-30T05:36:41.055Z,0.00
2023-01-30T05:39:08.998Z,0.00
2023-01-30T05:41:36.451Z,0.10
2023-01-30T05:44:04.093Z,0.63
2023-01-30T05:46:31.633Z,0.00
2023-01-30T05:48:59.305Z,0.00
2023-01-30T05:51:28.407Z,0.70
2023-01-30T05:53:57.327Z,0.00
2023-01-30T05:56:25.061Z,0.10
2023-01-30T05:58:53.176Z,0.00
2023-01-30T06:01:21.062Z,0.00
2023-01-30T06:03:49.105Z,0.00
2023-01-30T06:06:16.684Z,0.00
2023-01-30T06:08:44.302Z,0.00
2023-01-30T06:11:15.270Z,0.05
2023-01-30T06:13:42.862Z,0.00
2023-01-30T06:16:11.859Z,0.00
2023-01-30T06:18:39.869Z,0.00
2023-01-30T06:21:08.214Z,0.00
2023-01-30T06:23:36.100Z,0.10
2023-01-30T06:26:05.868Z,0.00
2023-01-30T06:28:37.939Z,1.30
2023-01-30T06:31:07.347Z,0.20
2023-01-30T06:33:35.153Z,0.00
2023-01-30T06:36:02.781Z,0.20
2023-01-30T06:38:30.201Z,1.20
2023-01-30T06:40:57.919Z,0.00
2023-01-30T06:43:25.415Z,0.05
2023-01-30T06:45:54.240Z,0.00
2023-01-30T06:48:21.710Z,0.08
2023-01-30T06:50:49.153Z,1.25
2023-01-30T06:53:16.685Z,0.00
2023-01-30T06:55:44.133Z,2.90
2023-01-30T06:58:13.399Z,0.00
2023-01-30T07:00:42.459Z,0.00
2023-01-30T07:03:13.688Z,5.50
2023-01-30T07:05:41.603Z,0.00
2023-01-30T07:08:09.506Z,6.53
2023-01-30T07:10:37.233Z,0.00
2023-01-30T07:13:05.400Z,0.00
2023-01-30T07:15:33.243Z,5.93
2023-01-30T07:18:01.026Z,0.10
2023-01-30T07:20:31.452Z,0.20
2023-01-30T07:22:59.070Z,0.10
2023-01-30T07:25:27.818Z,0.00
2023-01-30T07:27:56.967Z,0.00
2023-01-30T07:30:25.081Z,0.00
2023-01-30T07:32:52.735Z,0.10
2023-01-30T07:35:20.438Z,0.00
2023-01-30T07:37:50.314Z,0.00
2023-01-30T07:40:18.798Z,0.00
2023-01-30T07:42:56.825Z,0.10
2023-01-30T07:45:24.534Z,0.03
2023-01-30T07:47:52.185Z,0.10
2023-01-30T07:50:20.229Z,0.00
2023-01-30T07:52:49.398Z,0.50
2023-01-30T07:55:17.583Z,0.10
2023-01-30T07:57:45.330Z,0.20
2023-01-30T08:00:15.048Z,0.20
2023-01-30T08:02:42.885Z,0.00
2023-01-30T08:05:11.043Z,0.30
2023-01-30T08:07:39.018Z,0.30
2023-01-30T08:10:11.905Z,0.08
2023-01-30T08:12:41.103Z,0.40
2023-01-30T08:15:09.723Z,0.10
2023-01-30T08:17:37.214Z,0.10
2023-01-30T08:20:05.631Z,0.10
2023-01-30T08:22:33.124Z,1.40
2023-01-30T08:25:01.202Z,0.10
2023-01-30T08:27:30.223Z,0.00
2023-01-30T08:29:57.910Z,1.50
2023-01-30T08:32:25.418Z,0.00
2023-01-30T08:34:52.957Z,0.20
2023-01-30T08:37:20.427Z,0.10
2023-01-30T08:39:47.962Z,0.00
2023-01-30T08:42:15.408Z,0.00
2023-01-30T08:44:44.235Z,0.45
2023-01-30T08:47:11.912Z,0.00
2023-01-30T08:49:39.614Z,0.70
2023-01-30T08:52:07.130Z,0.22
2023-01-30T08:54:34.771Z,0.08
2023-01-30T08:57:02.277Z,1.50
2023-01-30T08:59:29.842Z,0.00
2023-01-30T09:01:58.844Z,0.00
2023-01-30T09:04:26.450Z,0.00
2023-01-30T09:06:53.962Z,0.00
2023-01-30T09:09:21.476Z,0.10
2023-01-30T09:11:48.941Z,0.35
2023-01-30T09:14:19.701Z,0.00
2023-01-30T09:16:47.237Z,1.00
2023-01-30T09:19:16.364Z,0.40
2023-01-30T09:21:43.862Z,0.40
2023-01-30T09:24:11.322Z,0.00
2023-01-30T09:26:40.541Z,0.00
2023-01-30T09:29:08.199Z,0.08
2023-01-30T09:31:35.776Z,0.00
2023-01-30T09:34:03.320Z,3.10
2023-01-30T09:39:37.915Z,0.50
2023-01-30T09:42:31.725Z,0.40
2023-01-30T09:47:43.178Z,0.00
2023-01-30T09:50:23.725Z,0.00
2023-01-30T09:52:57.923Z,0.00
2023-01-30T09:56:06.193Z,0.40
2023-01-30T09:58:48.048Z,25.80
2023-01-30T10:01:22.165Z,0.00
2023-01-30T10:06:24.929Z,0.00
2023-01-30T10:08:57.464Z,0.00
2023-01-30T10:11:35.052Z,0.10
2023-01-30T10:14:14.932Z,0.00
2023-01-30T10:17:05.734Z,0.00
2023-01-30T10:23:12.344Z,0.00
2023-01-30T10:25:42.557Z,0.28
2023-01-30T10:28:17.528Z,0.00
2023-01-30T10:31:27.325Z,0.10
2023-01-30T10:37:18.056Z,0.10
2023-01-30T10:39:55.369Z,0.00
2023-01-30T10:42:27.482Z,0.00
2023-01-30T10:44:57.809Z,0.20
2023-01-30T10:47:47.575Z,0.20
2023-01-30T10:50:19.918Z,0.30
2023-01-30T10:52:55.404Z,1.03
2023-01-30T10:55:37.123Z,0.00
2023-01-30T10:58:13.423Z,0.00
2023-01-30T11:00:44.668Z,1.02
2023-01-30T11:03:22.020Z,0.00
2023-01-30T11:11:29.382Z,0.00
2023-01-30T11:14:07.044Z,0.00
2023-01-30T11:16:44.564Z,0.00
2023-01-30T11:19:21.977Z,0.00
2023-01-30T11:21:51.743Z,0.15
2023-01-30T11:24:21.671Z,0.00
2023-01-30T11:26:51.554Z,0.03
2023-01-30T11:29:29.888Z,0.00
2023-01-30T11:32:02.950Z,0.00
2023-01-30T11:34:30.856Z,0.00
2023-01-30T11:37:13.934Z,0.00
2023-01-30T11:39:49.734Z,0.05
2023-01-30T11:42:20.432Z,9.50
2023-01-30T11:44:47.983Z,9.43
2023-01-30T11:47:21.710Z,9.77
2023-01-30T11:49:56.253Z,12.40
2023-01-30T11:52:43.224Z,12.17
2023-01-30T11:55:14.707Z,19.75
2023-01-30T11:57:44.023Z,13.43
2023-01-30T12:00:19.426Z,16.60
2023-01-30T12:02:49.440Z,20.38
2023-01-30T12:05:26.102Z,16.33
2023-01-30T12:07:53.964Z,19.42
2023-01-30T12:10:30.806Z,20.13
2023-01-30T12:13:00.115Z,16.02
2023-01-30T12:15:29.154Z,12.20
2023-01-30T12:18:04.403Z,11.20
2023-01-30T12:20:41.687Z,8.68
2023-01-30T12:23:13.820Z,11.82
2023-01-30T12:25:44.968Z,20.60
2023-01-30T12:28:16.056Z,20.05
2023-01-30T12:30:45.524Z,16.88
2023-01-30T12:35:51.225Z,17.80
2023-01-30T12:38:28.992Z,22.67
2023-01-30T12:41:05.630Z,17.90
2023-01-30T12:43:47.203Z,9.35
2023-01-30T12:46:38.938Z,16.40
2023-01-30T12:49:23.423Z,17.15
2023-01-30T12:51:59.488Z,8.93
2023-01-30T12:54:37.238Z,9.02
2023-01-30T12:57:13.258Z,16.80
2023-01-30T12:59:48.907Z,25.60
2023-01-30T13:02:53.317Z,12.38
2023-01-30T13:05:36.517Z,15.35
2023-01-30T13:08:35.425Z,13.35
2023-01-30T13:11:14.032Z,12.35
2023-01-30T13:13:44.502Z,17.85
2023-01-30T13:16:17.820Z,21.10
2023-01-30T13:18:49.330Z,4.60
2023-01-30T13:21:21.808Z,23.77
2023-01-30T13:23:59.762Z,14.93
2023-01-30T13:26:31.345Z,11.60
2023-01-30T13:29:03.020Z,24.13
2023-01-30T13:31:34.017Z,23.30
2023-01-30T13:34:06.407Z,14.50
2023-01-30T13:36:50.864Z,15.02
2023-01-30T13:39:20.778Z,17.85
2023-01-30T13:41:52.395Z,15.77
2023-01-30T13:44:45.347Z,23.35
2023-01-30T13:47:33.008Z,16.80
2023-01-30T13:53:50.740Z,21.73
2023-01-30T14:00:31.504Z,17.73
2023-01-30T14:03:17.796Z,12.23
2023-01-30T14:06:10.576Z,12.02
2023-01-30T14:09:19.419Z,11.27
2023-01-30T14:12:15.398Z,4.70
2023-01-30T14:14:44.233Z,6.35
2023-01-30T14:17:13.395Z,17.97
2023-01-30T14:19:46.765Z,20.97
2023-01-30T14:22:23.633Z,11.32
2023-01-30T14:25:29.013Z,18.00
2023-01-30T14:30:38.516Z,17.02
2023-01-30T14:33:55.415Z,11.73
2023-01-30T14:36:37.563Z,13.48
2023-01-30T14:39:38.878Z,19.30
2023-01-30T14:42:13.712Z,18.35
2023-01-30T14:44:46.453Z,13.10
2023-01-30T14:47:34.561Z,16.35
2023-01-30T14:50:18.884Z,18.17
2023-01-30T14:52:49.432Z,12.07
2023-01-30T14:55:20.748Z,15.32
2023-01-30T15:02:00.516Z,14.30
2023-01-30T15:04:32.226Z,16.00
2023-01-30T15:07:01.077Z,8.13
2023-01-30T15:09:29.881Z,18.88
2023-01-30T15:12:19.411Z,20.40
2023-01-30T15:14:54.999Z,26.35
2023-01-30T15:17:28.825Z,20.57
2023-01-30T15:20:39.036Z,20.60
2023-01-30T15:23:47.138Z,18.33
2023-01-30T15:26:24.883Z,18.38
2023-01-30T15:29:03.495Z,15.83
2023-01-30T15:31:31.034Z,27.05
2023-01-30T15:33:58.585Z,18.65
2023-01-30T15:36:29.224Z,14.73
2023-01-30T15:39:04.402Z,26.20
2023-01-30T15:41:35.352Z,26.15
2023-01-30T15:44:34.972Z,30.90
2023-01-30T15:47:16.411Z,26.83
2023-01-30T15:50:06.189Z,23.30
2023-01-30T15:52:47.093Z,17.42
2023-01-30T15:55:17.900Z,30.70
2023-01-30T15:57:49.013Z,24.60
2023-01-30T16:03:43.553Z,23.80
2023-01-30T16:06:23.795Z,17.45
2023-01-30T16:09:01.394Z,18.23
2023-01-30T16:11:40.158Z,20.92
2023-01-30T16:14:09.851Z,20.25
2023-01-30T16:16:37.753Z,21.35
2023-01-30T16:19:06.839Z,16.00
2023-01-30T16:21:36.446Z,23.27
2023-01-30T16:24:07.236Z,15.52
2023-01-30T16:26:36.429Z,22.40
2023-01-30T16:29:06.403Z,25.25
2023-01-30T16:31:34.773Z,19.40
2023-01-30T16:34:02.496Z,15.27
2023-01-30T16:36:32.957Z,23.38
2023-01-30T16:39:00.921Z,17.30
2023-01-30T16:41:34.376Z,14.88
2023-01-30T16:44:21.318Z,29.05
2023-01-30T16:46:56.677Z,21.00
2023-01-30T16:49:43.097Z,10.27
2023-01-30T16:52:18.282Z,30.10
2023-01-30T16:54:48.175Z,30.67
2023-01-30T16:57:28.509Z,25.17
2023-01-30T16:59:56.572Z,24.40
2023-01-30T17:02:33.867Z,30.67
2023-01-30T17:05:15.856Z,12.80
2023-01-30T17:07:43.406Z,17.70
2023-01-30T17:10:48.510Z,27.60
2023-01-30T17:13:32.000Z,24.77
2023-01-30T17:16:27.637Z,20.52
2023-01-30T17:18:56.373Z,22.52
2023-01-30T17:21:25.500Z,31.38
2023-01-30T17:23:55.940Z,16.70
2023-01-30T17:26:23.568Z,20.67
2023-01-30T17:28:52.573Z,18.15
2023-01-30T17:34:41.068Z,31.50
2023-01-30T17:37:11.496Z,24.02
2023-01-30T17:39:39.040Z,30.80
2023-01-30T17:42:09.912Z,26.45
2023-01-30T17:44:57.343Z,30.67
2023-01-30T17:47:24.833Z,26.30
2023-01-30T17:49:52.425Z,20.37
2023-01-30T17:52:20.167Z,19.60
2023-01-30T17:54:47.674Z,22.93
2023-01-30T17:57:15.916Z,22.10
2023-01-30T17:59:43.481Z,15.48
2023-01-30T18:02:12.367Z,22.25
2023-01-30T18:04:40.619Z,21.15
2023-01-30T18:07:12.662Z,21.00
2023-01-30T18:09:40.320Z,30.77
2023-01-30T18:12:08.007Z,20.38
2023-01-30T18:14:47.524Z,24.30
2023-01-30T18:17:16.559Z,21.55
2023-01-30T18:22:18.355Z,25.08
2023-01-30T18:24:45.880Z,29.00
2023-01-30T18:27:18.219Z,29.07
2023-01-30T18:29:45.936Z,24.42
2023-01-30T18:32:13.559Z,22.27
2023-01-30T18:34:42.767Z,18.65
2023-01-30T18:37:10.329Z,25.73
2023-01-30T18:39:38.281Z,30.75
2023-01-30T18:42:07.669Z,26.42
2023-01-30T18:44:35.721Z,16.05
2023-01-30T18:47:18.250Z,20.58
2023-01-30T18:49:47.205Z,26.05
2023-01-30T18:52:14.735Z,28.73
2023-01-30T18:54:42.407Z,33.05
2023-01-30T18:57:10.066Z,24.88
2023-01-30T18:59:39.557Z,23.33
2023-01-30T19:02:07.302Z,20.98
2023-01-30T19:04:35.265Z,19.60
2023-01-30T19:07:04.202Z,22.33
2023-01-30T19:09:31.742Z,24.17
2023-01-30T19:12:16.964Z,20.50
2023-01-30T19:14:44.561Z,18.30
2023-01-30T19:17:14.294Z,27.10
2023-01-30T19:19:42.589Z,24.88
2023-01-30T19:22:11.791Z,15.05
2023-01-30T19:24:39.302Z,31.98
2023-01-30T19:27:07.773Z,33.83
2023-01-30T19:29:35.365Z,26.63
2023-01-30T19:32:03.208Z,28.02
2023-01-30T19:34:31.403Z,19.92
2023-01-30T19:37:02.209Z,19.10
2023-01-30T19:39:31.088Z,31.10
2023-01-30T19:41:58.625Z,19.27
2023-01-30T19:44:26.134Z,30.45
2023-01-30T19:46:53.698Z,18.70
2023-01-30T19:49:21.253Z,34.43
2023-01-30T19:51:48.744Z,26.58
2023-01-30T19:54:16.337Z,32.50
2023-01-30T19:56:48.234Z,26.20
2023-01-30T19:59:16.602Z,25.20
2023-01-30T20:01:44.247Z,20.90
2023-01-30T20:04:11.822Z,18.90
2023-01-30T20:06:43.172Z,13.43
2023-01-30T20:09:11.420Z,26.37
2023-01-30T20:11:41.133Z,25.98
2023-01-30T20:14:10.408Z,16.85
2023-01-30T20:16:37.984Z,24.65
2023-01-30T20:19:07.926Z,17.67
2023-01-30T20:21:36.748Z,28.40
2023-01-30T20:26:48.785Z,28.70
2023-01-30T20:29:18.136Z,26.50
2023-01-30T20:31:54.288Z,22.67
2023-01-30T20:34:22.024Z,23.10
2023-01-30T20:36:49.593Z,23.70
2023-01-30T20:39:20.585Z,23.02
2023-01-30T20:41:48.338Z,20.98
2023-01-30T20:44:17.329Z,26.42
2023-01-30T20:46:46.802Z,21.50
2023-01-30T20:49:15.922Z,16.45
2023-01-30T20:51:43.887Z,28.25
2023-01-30T20:54:12.801Z,23.10
2023-01-30T20:56:42.829Z,22.77
2023-01-30T20:59:11.884Z,29.10
2023-01-30T21:01:40.820Z,21.03
2023-01-30T21:04:09.862Z,23.67
2023-01-30T21:06:44.753Z,17.80
2023-01-30T21:09:15.042Z,21.88
2023-01-30T21:11:42.779Z,26.52
2023-01-30T21:14:10.312Z,21.00
2023-01-30T21:16:38.471Z,22.45
2023-01-30T21:19:09.097Z,25.60
2023-01-30T21:21:38.242Z,24.13
2023-01-30T21:24:08.716Z,26.27
2023-01-30T21:26:38.580Z,27.25
2023-01-30T21:29:08.424Z,29.05
2023-01-30T21:31:37.613Z,19.50
2023-01-30T21:34:07.964Z,27.30
2023-01-30T21:36:35.446Z,30.45
2023-01-30T21:42:38.257Z,23.70
2023-01-30T21:45:07.394Z,21.38
2023-01-30T21:47:34.879Z,24.52
2023-01-30T21:50:03.732Z,20.92
2023-01-30T21:52:32.355Z,22.33
2023-01-30T21:54:59.896Z,20.73
2023-01-30T21:57:27.398Z,27.98
2023-01-30T21:59:55.356Z,23.05
2023-01-30T22:02:23.112Z,17.77
2023-01-30T22:04:50.789Z,25.02
2023-01-30T22:07:19.659Z,31.95
2023-01-30T22:09:48.765Z,21.80
2023-01-30T22:12:16.294Z,17.65
2023-01-30T22:14:43.793Z,21.52
2023-01-30T22:17:11.321Z,20.15
2023-01-30T22:19:38.820Z,19.90
2023-01-30T22:22:06.323Z,18.85
2023-01-30T22:24:35.166Z,12.65
2023-01-30T22:27:03.369Z,22.50
2023-01-30T22:29:30.854Z,19.00
2023-01-30T22:31:58.624Z,21.65
2023-01-30T22:34:26.267Z,24.58
2023-01-30T22:36:54.346Z,30.00
2023-01-30T22:39:21.889Z,20.63
2023-01-30T22:41:50.925Z,22.10
2023-01-30T22:44:18.427Z,25.17
2023-01-30T22:46:46.065Z,23.58
2023-01-30T22:49:13.601Z,27.83
2023-01-30T22:51:43.172Z,22.40
2023-01-30T22:54:15.447Z,20.88
2023-01-30T22:56:44.305Z,21.65
2023-01-30T22:59:13.589Z,26.60
2023-01-30T23:01:43.000Z,32.10
2023-01-30T23:04:13.569Z,25.65
2023-01-30T23:06:41.492Z,30.08
2023-01-30T23:09:10.443Z,27.63
2023-01-30T23:11:40.599Z,27.30
2023-01-30T23:14:09.514Z,28.58
2023-01-30T23:16:40.360Z,22.63
2023-01-30T23:19:07.862Z,22.35
2023-01-30T23:21:57.932Z,26.88
2023-01-30T23:24:25.418Z,21.07
2023-01-30T23:26:53.161Z,21.70
2023-01-30T23:29:21.543Z,19.33
2023-01-30T23:31:50.440Z,25.95
2023-01-30T23:34:19.570Z,27.52
2023-01-30T23:36:47.476Z,29.40
2023-01-30T23:39:15.413Z,31.33
2023-01-30T23:41:44.228Z,31.45
2023-01-30T23:44:11.971Z,26.80
2023-01-30T23:46:41.520Z,20.40
2023-01-30T23:49:11.591Z,28.27
2023-01-30T23:51:40.790Z,23.50
2023-01-30T23:54:08.902Z,28.10
2023-01-30T23:56:38.842Z,23.07
2023-01-30T23:59:07.019Z,19.98
